Time;durP1;ratioP1;P1;durP2;ratioP2;P2;SDS_P1;SDS_P2;PMS_P1;PMS_P2;Temp;Humidity;BMP_temperature;BMP_pressure;BME280_temperature;BME280_humidity;BME280_pressure;Samples;Min_cycle;Max_cycle;Signal;HPM_P1;HPM_P2
2024/01/20 00:00:00;;;;;;;15.50;5.73;;;;;;;-145.69;58.24;52460.22;5134588;27;20205;-82
2024/01/20 00:02:27;;;;;;;12.67;5.67;;;;;;;-145.69;58.14;52464.19;5134391;27;20386;-80
2024/01/20 00:04:53;;;;;;;17.17;6.23;;;;;;;-145.69;59.31;52474.09;5134812;27;20292;-82
2024/01/20 00:07:20;;;;;;;14.23;6.47;;;;;;;-145.69;59.37;52450.31;5155098;27;20281;-82
2024/01/20 00:09:46;;;;;;;25.13;9.23;;;;;;;-145.69;61.00;52485.97;5155015;27;20227;-81
2024/01/20 00:12:13;;;;;;;25.97;8.50;;;;;;;-145.69;61.52;52446.38;5154795;27;20228;-82
2024/01/20 00:14:39;;;;;;;27.70;10.23;;;;;;;-145.69;62.18;52432.50;5153264;27;20207;-82
2024/01/20 00:17:07;;;;;;;26.03;10.43;;;;;;;-145.69;61.52;52428.53;5115447;27;20204;-82
2024/01/20 00:19:34;;;;;;;31.07;10.20;;;;;;;-145.69;61.39;52448.34;5113233;28;20205;-83
2024/01/20 00:22:00;;;;;;;28.07;10.57;;;;;;;-145.69;61.66;52396.84;5138394;27;20196;-82
2024/01/20 00:24:27;;;;;;;33.93;10.40;;;;;;;-145.69;61.47;52428.53;5154778;27;20204;-82
2024/01/20 00:26:53;;;;;;;31.87;10.90;;;;;;;-145.69;60.94;52476.06;5149822;27;20221;-82
2024/01/20 00:29:22;;;;;;;21.77;8.63;;;;;;;-145.69;60.22;52491.91;5145916;27;20222;-82
2024/01/20 00:31:49;;;;;;;23.17;8.67;;;;;;;-145.69;59.96;52472.13;5154223;27;20192;-81
2024/01/20 00:34:17;;;;;;;19.53;7.23;;;;;;;-145.69;59.06;52487.97;5155184;27;20203;-82
2024/01/20 00:36:43;;;;;;;16.87;7.07;;;;;;;-145.69;59.46;52480.03;5154576;27;20192;-81
2024/01/20 00:39:10;;;;;;;12.93;6.50;;;;;;;-145.69;59.32;52499.84;5144657;27;20240;-81
2024/01/20 00:41:36;;;;;;;15.47;6.40;;;;;;;-145.69;59.20;52497.84;5133550;27;20224;-81
2024/01/20 00:44:03;;;;;;;17.27;6.53;;;;;;;-145.69;58.97;52472.13;5133958;27;20279;-81
2024/01/20 00:46:30;;;;;;;14.37;6.03;;;;;;;-145.69;59.42;52476.06;5133338;28;20233;-80
2024/01/20 00:48:56;;;;;;;14.73;6.40;;;;;;;-145.69;59.31;52444.38;5133534;27;20243;-81
2024/01/20 00:51:25;;;;;;;14.40;5.77;;;;;;;-145.69;58.51;52476.06;5134142;27;20201;-81
2024/01/20 00:53:51;;;;;;;15.40;6.93;;;;;;;-145.69;58.50;52503.81;5133631;27;20203;-81
2024/01/20 00:56:18;;;;;;;12.90;6.33;;;;;;;-145.69;58.43;52446.38;5133666;27;20197;-81
2024/01/20 00:58:46;;;;;;;16.10;6.23;;;;;;;-145.69;58.81;52476.06;5133398;28;20525;-82
2024/01/20 01:01:13;;;;;;;17.13;7.27;;;;;;;-145.69;59.24;52476.06;5133334;27;20205;-82
2024/01/20 01:03:41;;;;;;;12.43;6.63;;;;;;;-145.69;57.98;52484.00;5133221;27;20666;-79
2024/01/20 01:06:08;;;;;;;15.90;7.17;;;;;;;-145.69;58.76;52446.38;5133679;27;20207;-82
2024/01/20 01:08:36;;;;;;;16.27;6.97;;;;;;;-145.69;58.46;52468.16;5133403;27;20228;-82
2024/01/20 01:11:02;;;;;;;17.03;6.90;;;;;;;-145.69;59.27;52489.94;5133743;27;20284;-80
2024/01/20 01:13:29;;;;;;;17.83;7.23;;;;;;;-145.69;59.24;52464.19;5133321;27;20520;-82
2024/01/20 01:15:56;;;;;;;19.47;8.03;;;;;;;-145.69;60.01;52458.25;5133761;28;20216;-81
2024/01/20 01:18:23;;;;;;;16.63;7.90;;;;;;;-145.69;60.01;52460.22;5132931;27;20235;-82
2024/01/20 01:20:49;;;;;;;17.43;7.17;;;;;;;-145.69;60.51;52464.19;5134164;27;20667;-82
2024/01/20 01:23:15;;;;;;;16.37;7.33;;;;;;;-145.69;60.22;52456.28;5133218;27;20207;-82
2024/01/20 01:25:45;;;;;;;23.77;8.23;;;;;;;-145.69;61.51;52482.00;5136875;27;20201;-81
2024/01/20 01:28:12;;;;;;;23.10;8.00;;;;;;;-145.69;60.01;52517.66;5136902;27;20201;-82
2024/01/20 01:30:38;;;;;;;17.07;8.50;;;;;;;-145.69;61.80;52460.22;5137034;27;20220;-82
2024/01/20 01:33:05;;;;;;;23.67;8.60;;;;;;;-145.69;60.69;52464.19;5137462;27;20723;-81
2024/01/20 01:35:31;;;;;;;16.90;7.50;;;;;;;-145.69;59.68;52484.00;5137170;27;20651;-82
2024/01/20 01:37:58;;;;;;;23.53;8.37;;;;;;;-145.69;60.14;52446.38;5137049;27;20208;-81
2024/01/20 01:40:25;;;;;;;19.07;7.87;;;;;;;-145.69;60.81;52466.16;5136895;27;20196;-81
2024/01/20 01:42:56;;;;;;;18.30;7.90;;;;;;;-145.69;60.02;52493.91;5137249;27;20304;-81
2024/01/20 01:45:23;;;;;;;18.20;8.00;;;;;;;-145.69;60.94;52485.97;5136983;27;20197;-82
2024/01/20 01:47:50;;;;;;;22.80;9.57;;;;;;;-145.69;59.99;52458.25;5136946;27;20231;-83
2024/01/20 01:50:16;;;;;;;18.50;8.03;;;;;;;-145.69;59.92;52442.41;5135183;27;20235;-82
2024/01/20 01:52:43;;;;;;;20.10;8.23;;;;;;;-145.69;58.84;52505.78;5137006;27;20651;-81
2024/01/20 01:55:11;;;;;;;16.03;7.20;;;;;;;-145.69;59.27;52458.25;5137173;27;20722;-82
2024/01/20 01:57:39;;;;;;;19.83;8.03;;;;;;;-145.69;58.63;52464.19;5137273;27;20289;-82
2024/01/20 02:00:08;;;;;;;16.07;7.20;;;;;;;-145.69;59.12;52476.06;5136377;27;20192;-83
2024/01/20 02:02:36;;;;;;;20.40;7.70;;;;;;;-145.69;59.14;52460.22;5136635;27;20197;-82
2024/01/20 02:05:06;;;;;;;17.57;7.63;;;;;;;-145.69;59.43;52511.72;5136084;27;20462;-81
2024/01/20 02:07:34;;;;;;;25.20;7.90;;;;;;;-145.69;59.01;52495.88;5136639;27;20204;-81
2024/01/20 02:10:00;;;;;;;15.47;7.57;;;;;;;-145.69;58.31;52468.16;5136491;27;20228;-80
2024/01/20 02:12:27;;;;;;;19.10;7.60;;;;;;;-145.69;58.67;52436.47;5116962;27;20318;-82
2024/01/20 02:14:54;;;;;;;18.10;7.13;;;;;;;-145.69;57.83;52460.22;5125460;27;20196;-82
2024/01/20 02:17:22;;;;;;;13.93;6.37;;;;;;;-145.69;58.11;52489.94;5136642;27;20200;-82
2024/01/20 02:19:49;;;;;;;17.00;7.20;;;;;;;-145.69;58.29;52464.19;5136357;27;20219;-82
2024/01/20 02:22:17;;;;;;;23.10;7.77;;;;;;;-145.69;58.06;52474.09;5136457;27;20200;-80
2024/01/20 02:24:48;;;;;;;19.80;8.27;;;;;;;-145.69;57.54;52495.88;5136355;27;20207;-82
2024/01/20 02:27:15;;;;;;;18.63;7.87;;;;;;;-145.69;58.36;52489.94;5135973;27;20223;-82
2024/01/20 02:29:41;;;;;;;26.33;8.60;;;;;;;-145.69;57.80;52480.03;5151837;27;20223;-81
2024/01/20 02:32:08;;;;;;;20.40;8.33;;;;;;;-145.69;58.11;52487.97;5157050;27;20207;-82
2024/01/20 02:34:36;;;;;;;21.20;7.07;;;;;;;-145.69;57.87;52452.31;5156968;27;20210;-82
2024/01/20 02:37:03;;;;;;;21.17;7.77;;;;;;;-145.69;58.05;52464.19;5157008;27;20207;-81
2024/01/20 02:39:33;;;;;;;20.03;8.23;;;;;;;-145.69;58.23;52503.81;5143773;27;20200;-80
2024/01/20 02:42:00;;;;;;;20.97;7.90;;;;;;;-145.69;58.58;52513.69;5136572;27;20196;-82
2024/01/20 02:44:26;;;;;;;22.70;8.43;;;;;;;-145.69;57.39;52480.03;5135938;27;20559;-82
2024/01/20 02:46:53;;;;;;;22.67;9.27;;;;;;;-145.69;57.82;52412.69;5135864;27;20224;-83
2024/01/20 02:49:20;;;;;;;22.57;9.07;;;;;;;-145.69;58.29;52456.28;5135932;27;20252;-82
2024/01/20 02:51:46;;;;;;;20.87;8.03;;;;;;;-145.69;57.76;52484.00;5135653;27;20200;-80
2024/01/20 02:54:13;;;;;;;16.87;7.63;;;;;;;-145.69;57.53;52505.78;5136011;27;20200;-81
2024/01/20 02:56:41;;;;;;;22.50;9.37;;;;;;;-145.69;57.60;52480.03;5135863;27;20224;-81
2024/01/20 02:59:07;;;;;;;18.30;7.20;;;;;;;-145.69;58.24;52454.28;5135667;27;20204;-81
2024/01/20 03:01:34;;;;;;;18.13;6.90;;;;;;;-145.69;57.65;52438.44;5135216;27;20659;-81
2024/01/20 03:04:00;;;;;;;17.73;7.80;;;;;;;-145.69;57.89;52480.03;5135479;27;20273;-80
2024/01/20 03:06:28;;;;;;;14.07;7.07;;;;;;;-145.69;57.51;52484.00;5135459;27;20208;-81
2024/01/20 03:08:54;;;;;;;21.13;8.50;;;;;;;-145.69;57.35;52460.22;5135576;27;20221;-82
2024/01/20 03:11:21;;;;;;;18.97;7.43;;;;;;;-145.69;57.08;52456.28;5135124;27;20253;-81
2024/01/20 03:13:49;;;;;;;17.33;6.67;;;;;;;-145.69;57.40;52472.13;5135466;27;20238;-81
2024/01/20 03:16:15;;;;;;;18.73;7.73;;;;;;;-145.69;56.93;52446.38;5135319;27;20202;-80
2024/01/20 03:18:42;;;;;;;17.63;5.83;;;;;;;-145.69;57.13;52501.81;5135067;27;20222;-81
2024/01/20 03:21:12;;;;;;;14.70;6.60;;;;;;;-145.69;57.30;52501.81;5135239;27;20273;-81
2024/01/20 03:23:38;;;;;;;18.87;6.67;;;;;;;-145.69;57.57;52484.00;5135111;27;20197;-81
2024/01/20 03:26:10;;;;;;;18.00;7.77;;;;;;;-145.69;57.54;52484.00;5134859;27;20202;-81
2024/01/20 03:28:40;;;;;;;18.87;7.37;;;;;;;-145.69;57.46;52460.22;5134858;27;20203;-81
2024/01/20 03:31:11;;;;;;;20.23;7.63;;;;;;;-145.69;57.13;52474.09;5134856;27;20222;-81
2024/01/20 03:33:37;;;;;;;23.13;7.93;;;;;;;-145.69;58.11;52468.16;5134914;27;20647;-81
2024/01/20 03:36:06;;;;;;;18.93;7.67;;;;;;;-145.69;58.31;52474.09;5135077;27;20205;-81
2024/01/20 03:38:33;;;;;;;24.83;8.90;;;;;;;-145.69;57.98;52511.72;5134876;27;20223;-81
2024/01/20 03:40:59;;;;;;;17.07;7.57;;;;;;;-145.69;57.70;52474.09;5134389;27;20223;-81
2024/01/20 03:43:26;;;;;;;17.97;7.93;;;;;;;-145.69;58.11;52444.38;5134540;27;20228;-81
2024/01/20 03:45:53;;;;;;;20.70;8.17;;;;;;;-145.69;57.20;52462.22;5134060;27;20195;-81
2024/01/20 03:48:21;;;;;;;19.80;7.37;;;;;;;-145.69;57.30;52491.91;5133809;27;20225;-81
2024/01/20 03:50:47;;;;;;;28.42;10.73;;;;;;;-145.69;58.33;52460.22;5134070;27;20464;-81
2024/01/20 03:53:14;;;;;;;21.60;9.00;;;;;;;-145.69;57.21;52456.28;5132554;27;20231;-81
2024/01/20 03:55:40;;;;;;;19.83;7.73;;;;;;;-145.69;57.67;52485.97;5134592;27;20231;-81
2024/01/20 03:58:11;;;;;;;14.20;6.43;;;;;;;-145.69;56.95;52503.81;5134300;27;20654;-81
2024/01/20 04:00:38;;;;;;;20.17;7.63;;;;;;;-145.69;57.22;52452.31;5134551;27;20292;-81
2024/01/20 04:03:05;;;;;;;20.83;7.67;;;;;;;-145.69;58.90;52501.81;5134431;27;20635;-81
2024/01/20 04:05:39;;;;;;;19.77;7.70;;;;;;;-145.69;60.26;52462.22;5119203;27;20209;-81
2024/01/20 04:08:10;;;;;;;15.40;7.03;;;;;;;-145.69;58.16;52464.19;5113951;28;20197;-81
2024/01/20 04:10:38;;;;;;;17.77;7.63;;;;;;;-145.69;58.42;52466.16;5113610;28;20221;-81
2024/01/20 04:13:08;;;;;;;18.13;7.53;;;;;;;-145.69;57.86;52466.16;5132317;27;20285;-81
2024/01/20 04:15:34;;;;;;;17.87;7.33;;;;;;;-145.69;57.78;52482.00;5134117;27;20201;-81
2024/01/20 04:18:01;;;;;;;19.63;8.00;;;;;;;-145.69;58.24;52484.00;5134173;27;20204;-81
2024/01/20 04:20:27;;;;;;;18.40;7.60;;;;;;;-145.69;58.06;52472.13;5134301;27;20197;-81
2024/01/20 04:22:55;;;;;;;16.37;7.53;;;;;;;-145.69;58.29;52456.28;5134081;27;20237;-81
2024/01/20 04:25:22;;;;;;;17.47;8.00;;;;;;;-145.69;58.14;52537.47;5145496;27;20227;-81
2024/01/20 04:27:53;;;;;;;18.27;7.83;;;;;;;-145.69;58.64;52466.16;5155213;27;20207;-82
2024/01/20 04:30:19;;;;;;;17.17;6.80;;;;;;;-145.69;58.89;52503.81;5154471;27;20708;-80
2024/01/20 04:32:46;;;;;;;20.73;7.97;;;;;;;-145.69;59.51;52472.13;5154932;27;20193;-80
2024/01/20 04:35:12;;;;;;;20.60;7.57;;;;;;;-145.69;58.57;52482.00;5154721;27;20200;-81
2024/01/20 04:37:39;;;;;;;21.53;7.60;;;;;;;-145.69;58.46;52442.41;5134430;27;20204;-81
2024/01/20 04:40:08;;;;;;;19.80;7.80;;;;;;;-145.69;58.55;52458.25;5133729;27;20197;-81
2024/01/20 04:42:35;;;;;;;22.07;7.77;;;;;;;-145.69;58.68;52416.66;5133846;27;20211;-81
2024/01/20 04:45:11;;;;;;;21.83;7.50;;;;;;;-145.69;58.04;52462.22;5133700;27;20196;-81
2024/01/20 04:47:37;;;;;;;17.40;7.33;;;;;;;-145.69;57.91;52497.84;5133376;28;20227;-81
2024/01/20 04:50:04;;;;;;;16.97;7.03;;;;;;;-145.69;58.40;52503.81;5133807;27;20227;-80
2024/01/20 04:52:31;;;;;;;20.47;7.57;;;;;;;-145.69;58.31;52480.03;5133805;27;20204;-81
2024/01/20 04:54:58;;;;;;;17.73;8.17;;;;;;;-145.69;58.81;52511.72;5141503;27;20184;-80
2024/01/20 04:57:25;;;;;;;21.27;8.33;;;;;;;-145.69;58.34;52472.13;5154597;27;20204;-80
2024/01/20 04:59:52;;;;;;;16.97;7.80;;;;;;;-145.69;58.32;52468.16;5154381;27;20192;-81
2024/01/20 05:02:20;;;;;;;21.30;7.47;;;;;;;-145.69;58.29;52470.13;5137980;27;20283;-81
2024/01/20 05:04:51;;;;;;;17.60;8.37;;;;;;;-145.69;57.72;52454.28;5137993;27;20681;-81
2024/01/20 05:07:18;;;;;;;18.37;7.20;;;;;;;-145.69;57.79;52511.72;5138110;27;20192;-82
2024/01/20 05:09:47;;;;;;;17.80;7.63;;;;;;;-145.69;57.68;52476.06;5138014;27;20694;-81
2024/01/20 05:12:16;;;;;;;18.80;6.83;;;;;;;-145.69;58.10;52495.88;5137847;27;20279;-81
2024/01/20 05:14:47;;;;;;;15.03;7.40;;;;;;;-145.69;58.50;52515.69;5137921;27;20243;-81
2024/01/20 05:17:14;;;;;;;13.23;6.10;;;;;;;-145.69;57.73;52487.97;5137528;27;20250;-81
2024/01/20 05:19:43;;;;;;;15.53;6.90;;;;;;;-145.69;57.86;52470.13;5137538;27;20204;-81
2024/01/20 05:22:09;;;;;;;15.67;6.43;;;;;;;-145.69;59.38;52485.97;5137733;27;20197;-81
2024/01/20 05:24:36;;;;;;;13.73;6.67;;;;;;;-145.69;59.34;52499.84;5137785;27;20667;-81
2024/01/20 05:27:03;;;;;;;17.20;8.20;;;;;;;-145.69;59.21;52430.53;5137316;27;20197;-82
2024/01/20 05:29:30;;;;;;;18.20;7.67;;;;;;;-145.69;59.03;52497.84;5137311;27;20647;-81
2024/01/20 05:31:59;;;;;;;11.00;6.13;;;;;;;-145.69;59.02;52454.28;5137488;27;20207;-81
2024/01/20 05:34:25;;;;;;;17.53;7.47;;;;;;;-145.69;58.46;52472.13;5137251;27;20201;-81
2024/01/20 05:36:54;;;;;;;20.63;7.87;;;;;;;-145.69;58.25;52489.94;5136827;27;20197;-81
2024/01/20 05:39:23;;;;;;;23.70;9.97;;;;;;;-145.69;59.73;52472.13;5136659;27;20500;-81
2024/01/20 05:41:50;;;;;;;17.00;7.83;;;;;;;-145.69;58.98;52507.75;5137026;27;20200;-81
2024/01/20 05:44:17;;;;;;;18.63;7.53;;;;;;;-145.69;58.62;52501.81;5137070;27;20295;-82
2024/01/20 05:46:43;;;;;;;23.77;7.17;;;;;;;-145.69;59.07;52430.53;5136269;27;20227;-81
2024/01/20 05:49:11;;;;;;;16.43;6.87;;;;;;;-145.69;57.80;52484.00;5136838;27;20193;-82
2024/01/20 05:51:38;;;;;;;19.93;6.97;;;;;;;-145.69;57.87;52474.09;5137021;27;20636;-80
2024/01/20 05:54:04;;;;;;;13.53;6.47;;;;;;;-145.69;58.05;52507.75;5139522;27;20199;-83
2024/01/20 05:56:31;;;;;;;13.60;6.50;;;;;;;-145.69;57.40;52472.13;5139270;27;20199;-82
2024/01/20 05:59:01;;;;;;;11.33;6.03;;;;;;;-145.69;57.30;52503.81;5137969;27;20253;-80
2024/01/20 06:01:27;;;;;;;11.83;5.77;;;;;;;-145.69;57.45;52478.06;5133914;27;20229;-82
2024/01/20 06:03:54;;;;;;;15.63;6.63;;;;;;;-145.69;58.87;52491.91;5137943;27;20220;-81
2024/01/20 06:06:22;;;;;;;15.17;5.93;;;;;;;-145.69;58.97;52499.84;5137162;27;20208;-81
2024/01/20 06:08:57;;;;;;;13.73;6.33;;;;;;;-145.69;57.88;52501.81;5137147;27;20205;-80
2024/01/20 06:11:27;;;;;;;15.53;6.27;;;;;;;-145.69;58.38;52484.00;5138164;27;20231;-80
2024/01/20 06:13:53;;;;;;;18.63;5.93;;;;;;;-145.69;57.93;52464.19;5136498;27;20205;-80
2024/01/20 06:16:21;;;;;;;17.00;6.73;;;;;;;-145.69;57.82;52485.97;5137955;27;20200;-81
2024/01/20 06:18:47;;;;;;;20.20;6.80;;;;;;;-145.69;57.79;52474.09;5136499;27;20191;-81
2024/01/20 06:21:22;;;;;;;16.50;5.80;;;;;;;-145.69;58.12;52491.91;5137765;27;20284;-81
2024/01/20 06:23:49;;;;;;;12.17;5.93;;;;;;;-145.69;57.33;52476.06;5136159;27;20189;-81
2024/01/20 06:26:15;;;;;;;12.20;5.60;;;;;;;-145.69;57.55;52468.16;5137747;27;20203;-80
2024/01/20 06:28:44;;;;;;;12.47;5.53;;;;;;;-145.69;57.32;52487.97;5136808;27;20207;-80
2024/01/20 06:31:22;;;;;;;14.20;6.83;;;;;;;-145.69;57.68;52460.22;5138097;27;20658;-80
2024/01/20 06:33:51;;;;;;;14.17;6.73;;;;;;;-145.69;57.69;52462.22;5136134;27;20188;-81
2024/01/20 06:36:17;;;;;;;12.03;6.13;;;;;;;-145.69;58.28;52476.06;5136308;27;20200;-80
2024/01/20 06:38:47;;;;;;;13.07;5.50;;;;;;;-145.69;57.30;52460.22;5137093;27;20714;-80
2024/01/20 06:41:15;;;;;;;14.27;6.03;;;;;;;-145.69;58.31;52468.16;5137310;27;20203;-81
2024/01/20 06:43:44;;;;;;;14.30;6.13;;;;;;;-145.69;58.16;52454.28;5135791;27;20193;-80
2024/01/20 06:46:10;;;;;;;17.87;6.73;;;;;;;-145.69;58.12;52470.13;5135914;27;20220;-81
2024/01/20 06:48:40;;;;;;;15.93;6.97;;;;;;;-145.69;57.78;52460.22;5137428;27;20208;-80
2024/01/20 06:51:09;;;;;;;16.50;6.87;;;;;;;-145.69;58.32;52476.06;5136569;27;20678;-81
2024/01/20 06:53:43;;;;;;;13.63;6.83;;;;;;;-145.69;57.97;52464.19;5137014;27;20208;-80
2024/01/20 06:56:11;;;;;;;15.90;6.23;;;;;;;-145.69;58.02;52491.91;5135656;27;20631;-81
2024/01/20 06:58:39;;;;;;;11.67;6.07;;;;;;;-145.69;57.92;52487.97;5137121;27;20254;-80
2024/01/20 07:01:05;;;;;;;12.80;5.73;;;;;;;-145.69;57.66;52480.03;5135444;27;20192;-83
2024/01/20 07:03:32;;;;;;;13.17;5.40;;;;;;;-145.69;57.51;52478.06;5136720;27;20667;-80
2024/01/20 07:05:59;;;;;;;13.10;5.60;;;;;;;-145.69;57.75;52474.09;5136441;27;20220;-80
2024/01/20 07:08:28;;;;;;;15.13;5.73;;;;;;;-145.69;57.95;52517.66;5136181;27;20203;-81
2024/01/20 07:10:54;;;;;;;16.47;5.63;;;;;;;-145.69;58.14;52446.38;5137027;27;20224;-80
2024/01/20 07:13:28;;;;;;;15.55;7.57;;;;;;;-145.69;58.43;52503.81;5136445;27;20444;-81
2024/01/20 07:15:54;;;;;;;14.57;6.33;;;;;;;-145.69;57.98;52464.19;5136085;27;20235;-81
2024/01/20 07:18:21;;;;;;;15.40;4.90;;;;;;;-145.69;57.71;52499.84;5135279;27;20633;-80
2024/01/20 07:20:49;;;;;;;12.47;5.00;;;;;;;-145.69;57.80;52491.91;5136722;27;20211;-81
2024/01/20 07:23:16;;;;;;;12.53;5.73;;;;;;;-145.69;57.90;52446.38;5137670;27;20204;-80
2024/01/20 07:25:42;;;;;;;13.57;5.83;;;;;;;-145.69;57.97;52476.06;5134979;27;20193;-82
2024/01/20 07:28:09;;;;;;;11.70;5.47;;;;;;;-145.69;58.10;52446.38;5136236;27;20207;-81
2024/01/20 07:30:38;;;;;;;10.37;4.97;;;;;;;-145.69;58.22;52416.66;5135440;27;20227;-82
2024/01/20 07:33:05;;;;;;;16.33;6.20;;;;;;;-145.69;58.41;52444.38;5136085;27;20197;-81
2024/01/20 07:35:34;;;;;;;37.53;11.17;;;;;;;-145.69;58.21;52448.34;5134978;27;20262;-81
2024/01/20 07:38:02;;;;;;;39.47;12.13;;;;;;;-145.69;57.80;52499.84;5135937;27;20236;-82
2024/01/20 07:40:29;;;;;;;27.20;8.80;;;;;;;-145.69;58.33;52464.19;5135637;27;20580;-82
2024/01/20 07:42:56;;;;;;;20.87;8.13;;;;;;;-145.69;57.95;52448.34;5135367;27;20651;-82
2024/01/20 07:45:28;;;;;;;18.90;6.67;;;;;;;-145.69;58.16;52444.38;5135881;27;20597;-82
2024/01/20 07:47:56;;;;;;;18.90;7.17;;;;;;;-145.69;58.31;52446.38;5134340;27;20224;-82
2024/01/20 07:50:26;;;;;;;14.00;6.47;;;;;;;-145.69;58.28;52478.06;5135547;27;20223;-81
2024/01/20 07:52:53;;;;;;;11.00;5.57;;;;;;;-145.69;58.66;52503.81;5134560;27;20258;-82
2024/01/20 07:55:25;;;;;;;13.30;6.17;;;;;;;-145.69;58.66;52452.31;5134841;27;20204;-82
2024/01/20 07:57:52;;;;;;;16.27;6.10;;;;;;;-145.69;58.96;52472.13;5139909;27;20207;-82
2024/01/20 08:00:22;;;;;;;16.63;6.67;;;;;;;-145.69;58.76;52495.88;5146014;27;20267;-82
2024/01/20 08:02:49;;;;;;;13.10;6.30;;;;;;;-145.69;58.71;52491.91;5162700;27;20588;-82
2024/01/20 08:05:17;;;;;;;19.00;7.80;;;;;;;-145.69;58.95;52464.19;5163345;27;20266;-82
2024/01/20 08:07:44;;;;;;;20.53;6.90;;;;;;;-145.69;59.01;52497.84;5163487;27;20654;-82
2024/01/20 08:10:11;;;;;;;16.73;6.83;;;;;;;-145.69;59.18;52484.00;5158861;27;20257;-82
2024/01/20 08:12:38;;;;;;;13.70;6.10;;;;;;;-145.69;59.66;52487.97;5125581;27;20224;-83
2024/01/20 08:15:07;;;;;;;12.47;5.90;;;;;;;-145.69;59.40;52464.19;5120550;28;20201;-82
2024/01/20 08:17:33;;;;;;;13.17;6.13;;;;;;;-145.69;58.89;52452.31;5121381;28;20206;-82
2024/01/20 08:20:00;;;;;;;18.27;8.73;;;;;;;-145.69;60.01;52503.81;5118797;28;20918;-82
2024/01/20 08:22:28;;;;;;;11.77;5.67;;;;;;;-145.69;60.16;52440.44;5123783;27;20189;-82
2024/01/20 08:24:56;;;;;;;14.73;5.37;;;;;;;-145.69;60.22;52484.00;5148327;27;20204;-81
2024/01/20 08:27:23;;;;;;;11.87;5.60;;;;;;;-145.69;60.01;52480.03;5149359;27;20196;-82
2024/01/20 08:29:49;;;;;;;17.03;6.20;;;;;;;-145.69;59.60;52472.13;5149489;27;20200;-82
2024/01/20 08:32:16;;;;;;;13.93;6.10;;;;;;;-145.69;61.07;52448.34;5168745;27;20236;-82
2024/01/20 08:34:42;;;;;;;16.37;7.17;;;;;;;-145.69;61.59;52476.06;5157997;27;20197;-82
2024/01/20 08:37:11;;;;;;;15.70;7.03;;;;;;;-145.69;62.87;52464.19;5148374;27;20583;-82
2024/01/20 08:39:39;;;;;;;17.97;7.87;;;;;;;-145.69;62.36;52476.06;5145902;27;20200;-82
2024/01/20 08:42:05;;;;;;;14.67;7.20;;;;;;;-145.69;62.47;52452.31;5146743;27;20196;-82
2024/01/20 08:44:34;;;;;;;23.73;8.10;;;;;;;-145.69;61.93;52450.31;5146103;27;20552;-83
2024/01/20 08:47:02;;;;;;;18.23;8.57;;;;;;;-145.69;61.16;52428.53;5145116;27;20315;-82
2024/01/20 08:49:31;;;;;;;18.50;8.80;;;;;;;-145.69;60.99;52480.03;5144817;27;20454;-81
2024/01/20 08:51:58;;;;;;;20.53;7.77;;;;;;;-145.69;61.26;52470.13;5144131;27;20235;-83
2024/01/20 08:54:25;;;;;;;17.60;6.57;;;;;;;-145.69;61.27;52495.88;5145439;27;20205;-83
2024/01/20 08:56:55;;;;;;;17.30;7.83;;;;;;;-145.69;61.26;52448.34;5143559;27;20197;-82
2024/01/20 08:59:22;;;;;;;17.17;7.47;;;;;;;-145.69;61.94;52448.34;5141117;27;20204;-83
2024/01/20 09:01:48;;;;;;;16.27;6.87;;;;;;;-145.69;61.52;52454.28;5142148;27;20222;-83
2024/01/20 09:04:15;;;;;;;14.77;6.47;;;;;;;-145.69;61.52;52444.38;5143068;27;20200;-83
2024/01/20 09:06:42;;;;;;;17.70;7.40;;;;;;;-145.69;61.44;52420.63;5141207;27;20728;-83
2024/01/20 09:09:08;;;;;;;16.73;8.13;;;;;;;-145.69;62.26;52464.19;5141875;27;20207;-83
2024/01/20 09:11:35;;;;;;;17.83;7.33;;;;;;;-145.69;61.92;52476.06;5138361;27;20230;-82
2024/01/20 09:14:04;;;;;;;16.00;6.90;;;;;;;-145.69;63.19;52452.31;5133823;27;20228;-82
2024/01/20 09:16:34;;;;;;;15.77;6.53;;;;;;;-145.69;62.66;52424.59;5134652;27;20209;-80
2024/01/20 09:19:00;;;;;;;18.00;7.23;;;;;;;-145.69;63.48;52428.53;5133412;27;20205;-79
2024/01/20 09:21:29;;;;;;;17.23;7.33;;;;;;;-145.69;63.13;52446.38;5135548;27;20204;-83
2024/01/20 09:23:56;;;;;;;19.70;8.23;;;;;;;-145.69;63.05;52460.22;5137327;27;20197;-82
2024/01/20 09:26:23;;;;;;;18.77;7.60;;;;;;;-145.69;63.26;52452.31;5135788;28;20188;-82
2024/01/20 09:28:52;;;;;;;15.67;7.30;;;;;;;-145.69;63.14;52416.66;5137443;27;20200;-82
2024/01/20 09:31:23;;;;;;;16.57;7.20;;;;;;;-145.69;63.31;52440.44;5139112;28;20227;-82
2024/01/20 09:33:50;;;;;;;14.50;7.03;;;;;;;-145.69;63.39;52444.38;5138051;27;20563;-80
2024/01/20 09:36:16;;;;;;;18.90;7.43;;;;;;;-145.69;63.34;52452.31;5137301;27;20253;-80
2024/01/20 09:38:51;;;;;;;16.67;7.30;;;;;;;-145.69;63.68;52426.56;5138617;27;20247;-82
2024/01/20 09:41:18;;;;;;;16.60;7.67;;;;;;;-145.69;64.11;52444.38;5138478;28;20642;-80
2024/01/20 09:43:45;;;;;;;20.77;9.77;;;;;;;-145.69;63.92;52424.59;5136149;27;20235;-81
2024/01/20 09:46:12;;;;;;;27.50;11.43;;;;;;;-145.69;63.89;52460.22;5138337;27;20204;-80
2024/01/20 09:48:41;;;;;;;21.40;9.40;;;;;;;-145.69;64.72;52472.13;5139296;27;20683;-81
2024/01/20 09:51:10;;;;;;;19.47;8.73;;;;;;;-145.69;63.67;52438.44;5137237;27;20216;-81
2024/01/20 09:53:36;;;;;;;18.87;8.77;;;;;;;-145.69;63.84;52424.59;5135958;27;20200;-81
2024/01/20 09:56:03;;;;;;;17.40;7.93;;;;;;;-145.69;63.33;52450.31;5137086;27;20193;-81
2024/01/20 09:58:34;;;;;;;16.30;7.63;;;;;;;-145.69;63.90;52432.50;5137610;27;20291;-80
2024/01/20 10:01:02;;;;;;;19.10;7.60;;;;;;;-145.69;63.61;52464.19;5150782;27;20722;-81
2024/01/20 10:03:35;;;;;;;22.40;8.43;;;;;;;-145.69;63.91;52394.88;5148179;27;20600;-82
2024/01/20 10:06:03;;;;;;;17.37;8.23;;;;;;;-145.69;64.26;52464.19;5136752;27;20682;-81
2024/01/20 10:08:30;;;;;;;24.80;11.83;;;;;;;-145.69;63.51;52456.28;5136866;27;20291;-81
2024/01/20 10:11:09;;;;;;;24.40;10.27;;;;;;;-145.69;63.77;52416.66;5136312;27;20204;-81
2024/01/20 10:13:41;;;;;;;24.57;10.20;;;;;;;-145.69;64.11;52422.59;5136690;27;20193;-81
2024/01/20 10:16:15;;;;;;;25.33;10.53;;;;;;;-145.69;63.67;52418.63;5136813;27;20192;-81
2024/01/20 10:18:42;;;;;;;20.27;9.27;;;;;;;-145.69;63.65;52430.53;5119395;27;20211;-82
2024/01/20 10:21:10;;;;;;;20.27;9.00;;;;;;;-145.69;63.92;52406.75;5116145;28;20211;-82
2024/01/20 10:23:38;;;;;;;17.63;8.53;;;;;;;-145.69;63.68;52442.41;5117791;28;20204;-81
2024/01/20 10:26:09;;;;;;;20.13;8.87;;;;;;;-145.69;63.61;52408.75;5135011;27;20197;-81
2024/01/20 10:28:36;;;;;;;21.67;9.03;;;;;;;-145.69;63.99;52448.34;5138029;27;20570;-79
2024/01/20 10:31:11;;;;;;;18.87;8.20;;;;;;;-145.69;63.83;52436.47;5138281;27;20205;-82
2024/01/20 10:33:38;;;;;;;21.50;8.07;;;;;;;-145.69;63.75;52460.22;5139135;27;20204;-80
2024/01/20 10:36:07;;;;;;;20.23;8.97;;;;;;;-145.69;63.31;52404.78;5138511;27;20602;-79
2024/01/20 10:38:39;;;;;;;18.73;7.70;;;;;;;-145.69;63.69;52432.50;5137614;27;20259;-80
2024/01/20 10:41:08;;;;;;;17.43;7.43;;;;;;;-145.69;62.80;52456.28;5138993;27;20655;-80
2024/01/20 10:43:39;;;;;;;14.57;6.97;;;;;;;-145.69;63.31;52452.31;5138396;27;20232;-79
2024/01/20 10:46:12;;;;;;;17.07;6.40;;;;;;;-145.69;63.30;52412.69;5138652;27;20239;-80
2024/01/20 10:48:47;;;;;;;12.50;5.77;;;;;;;-145.69;62.67;52416.66;5138335;27;20229;-82
2024/01/20 10:51:19;;;;;;;13.43;5.90;;;;;;;-145.69;62.71;52448.34;5140733;27;20207;-80
2024/01/20 10:53:49;;;;;;;12.53;5.30;;;;;;;-145.69;62.93;52436.47;5137094;27;20201;-82
2024/01/20 10:56:28;;;;;;;14.37;5.37;;;;;;;-145.69;62.28;52410.72;5136316;27;20197;-80
2024/01/20 10:59:01;;;;;;;15.37;6.40;;;;;;;-145.69;62.34;52402.78;5135768;27;20678;-81
2024/01/20 11:01:28;;;;;;;16.30;5.83;;;;;;;-145.69;62.65;52408.75;5121253;27;20196;-82
2024/01/20 11:03:55;;;;;;;13.83;5.67;;;;;;;-145.69;62.31;52442.41;5135388;27;20283;-82
2024/01/20 11:06:24;;;;;;;12.67;4.50;;;;;;;-145.69;62.13;52381.00;5135261;27;20655;-81
2024/01/20 11:08:52;;;;;;;14.03;5.90;;;;;;;-145.69;62.37;52432.50;5135539;27;20199;-81
2024/01/20 11:11:19;;;;;;;18.33;6.40;;;;;;;-145.69;62.74;52430.53;5135266;27;20280;-81